createdAt,value
2022-10-22T00:01:43.715Z,66.45
2022-10-22T00:04:48.218Z,66.28
2022-10-22T00:07:51.959Z,66.30
2022-10-22T00:10:55.971Z,66.68
2022-10-22T00:14:01.456Z,67.40
2022-10-22T00:17:08.041Z,67.77
2022-10-22T00:20:14.753Z,67.33
2022-10-22T00:23:18.410Z,67.51
2022-10-22T00:26:22.382Z,67.47
2022-10-22T00:29:27.425Z,67.47
2022-10-22T00:32:30.817Z,67.32
2022-10-22T00:35:53.490Z,67.91
2022-10-22T00:38:57.025Z,66.95
2022-10-22T00:42:03.156Z,67.00
2022-10-22T00:45:24.779Z,67.09
2022-10-22T00:48:31.161Z,66.95
2022-10-22T00:51:36.046Z,68.08
2022-10-22T00:54:40.765Z,68.32
2022-10-22T00:57:44.702Z,67.97
2022-10-22T01:00:50.521Z,68.20
2022-10-22T01:03:54.943Z,67.83
2022-10-22T01:06:59.015Z,67.55
2022-10-22T01:10:10.416Z,67.83
2022-10-22T01:13:33.964Z,67.80
2022-10-22T01:16:49.947Z,67.63
2022-10-22T01:20:06.971Z,67.58
2022-10-22T01:23:23.479Z,67.47
2022-10-22T01:26:37.987Z,67.42
2022-10-22T01:29:48.756Z,67.08
2022-10-22T01:32:55.899Z,67.47
2022-10-22T01:36:01.052Z,67.74
2022-10-22T01:39:06.623Z,67.56
2022-10-22T01:42:09.996Z,67.39
2022-10-22T01:45:16.237Z,67.10
2022-10-22T01:48:35.172Z,67.84
2022-10-22T01:51:53.467Z,67.80
2022-10-22T01:55:06.126Z,67.24
2022-10-22T01:58:21.453Z,67.47
2022-10-22T02:01:33.527Z,67.20
2022-10-22T02:04:44.440Z,67.48
2022-10-22T02:07:51.982Z,67.83
2022-10-22T02:10:58.673Z,67.40
2022-10-22T02:14:06.437Z,67.63
2022-10-22T02:17:17.145Z,67.24
2022-10-22T02:20:27.217Z,67.24
2022-10-22T02:23:31.129Z,67.18
2022-10-22T02:26:40.541Z,67.42
2022-10-22T02:29:51.078Z,67.34
2022-10-22T02:33:02.867Z,67.31
2022-10-22T02:36:09.007Z,67.47
2022-10-22T02:39:14.229Z,67.86
2022-10-22T02:42:18.372Z,68.64
2022-10-22T02:45:22.566Z,68.05
2022-10-22T02:48:28.040Z,67.73
2022-10-22T02:51:31.880Z,68.31
2022-10-22T02:54:35.663Z,68.03
2022-10-22T02:57:39.334Z,67.59
2022-10-22T03:00:43.432Z,68.07
2022-10-22T03:03:48.381Z,68.81
2022-10-22T03:06:51.994Z,68.37
2022-10-22T03:09:55.597Z,68.04
2022-10-22T03:12:59.219Z,68.01
2022-10-22T03:16:05.720Z,67.75
2022-10-22T03:19:10.743Z,67.99
2022-10-22T03:22:18.625Z,67.55
2022-10-22T03:25:25.477Z,67.58
2022-10-22T03:28:30.907Z,67.82
2022-10-22T03:31:34.509Z,67.96
2022-10-22T03:34:39.314Z,67.92
2022-10-22T03:37:43.205Z,67.74
2022-10-22T03:40:47.487Z,67.73
2022-10-22T03:43:53.130Z,67.53
2022-10-22T03:46:58.787Z,67.92
2022-10-22T03:50:09.331Z,68.18
2022-10-22T03:53:13.045Z,68.29
2022-10-22T03:56:16.737Z,68.15
2022-10-22T03:59:20.161Z,67.87
2022-10-22T04:02:23.852Z,67.96
2022-10-22T04:05:28.655Z,68.51
2022-10-22T04:08:32.738Z,68.39
2022-10-22T04:11:36.110Z,67.80
2022-10-22T04:14:39.649Z,68.25
2022-10-22T04:17:44.126Z,67.94
2022-10-22T04:20:50.987Z,67.98
2022-10-22T04:23:54.800Z,69.27
2022-10-22T04:27:00.691Z,68.71
2022-10-22T04:30:05.374Z,69.06
2022-10-22T04:33:08.996Z,68.81
2022-10-22T04:36:17.108Z,68.46
2022-10-22T04:39:20.749Z,68.11
2022-10-22T04:42:24.153Z,69.39
2022-10-22T04:45:27.856Z,69.01
2022-10-22T04:48:31.240Z,69.39
2022-10-22T04:51:37.291Z,69.34
2022-10-22T04:54:40.783Z,69.33
2022-10-22T04:57:44.385Z,68.37
2022-10-22T05:00:47.936Z,67.88
2022-10-22T05:03:53.122Z,68.34
2022-10-22T05:06:58.048Z,68.52
2022-10-22T05:10:02.349Z,68.56
2022-10-22T05:13:05.746Z,68.81
2022-10-22T05:16:09.852Z,67.94
2022-10-22T05:19:17.373Z,67.88
2022-10-22T05:22:22.334Z,68.02
2022-10-22T05:25:25.789Z,68.00
2022-10-22T05:28:29.380Z,68.12
2022-10-22T05:31:32.727Z,68.25
2022-10-22T05:34:37.221Z,67.85
2022-10-22T05:37:42.490Z,67.99
2022-10-22T05:40:46.872Z,68.02
2022-10-22T05:43:50.773Z,68.67
2022-10-22T05:46:54.340Z,68.80
2022-10-22T05:49:58.290Z,69.01
2022-10-22T05:53:03.244Z,69.86
2022-10-22T05:56:08.883Z,69.30
2022-10-22T05:59:13.062Z,68.84
2022-10-22T06:02:16.521Z,68.68
2022-10-22T06:05:20.164Z,68.28
2022-10-22T06:08:24.908Z,69.37
2022-10-22T06:11:31.123Z,69.81
2022-10-22T06:14:38.156Z,69.84
2022-10-22T06:17:41.801Z,69.33
2022-10-22T06:20:45.575Z,69.69
2022-10-22T06:23:50.547Z,70.24
2022-10-22T06:26:54.089Z,69.52
2022-10-22T06:29:57.822Z,69.56
2022-10-22T06:33:01.225Z,69.13
2022-10-22T06:36:08.677Z,69.23
2022-10-22T06:39:14.519Z,68.20
2022-10-22T06:42:18.204Z,68.24
2022-10-22T06:45:24.594Z,68.12
2022-10-22T06:48:28.367Z,67.80
2022-10-22T06:51:31.720Z,67.67
2022-10-22T06:54:36.938Z,67.49
2022-10-22T06:57:40.492Z,67.08
2022-10-22T07:00:44.211Z,66.17
2022-10-22T07:03:47.931Z,65.52
2022-10-22T07:06:51.534Z,65.20
2022-10-22T07:09:56.446Z,65.13
2022-10-22T07:13:00.291Z,64.96
2022-10-22T07:16:04.163Z,64.88
2022-10-22T07:19:07.765Z,64.67
2022-10-22T07:22:11.258Z,65.14
2022-10-22T07:25:16.401Z,64.95
2022-10-22T07:28:20.391Z,64.85
2022-10-22T07:31:24.476Z,63.66
2022-10-22T07:34:29.419Z,64.18
2022-10-22T07:37:35.011Z,63.17
2022-10-22T07:40:40.083Z,62.85
2022-10-22T07:43:43.885Z,61.99
2022-10-22T07:46:48.974Z,62.60
2022-10-22T07:49:52.841Z,62.28
2022-10-22T07:52:58.196Z,62.09
2022-10-22T07:56:03.938Z,62.43
2022-10-22T07:59:07.380Z,62.84
2022-10-22T08:02:11.384Z,62.71
2022-10-22T08:05:14.864Z,61.56
2022-10-22T08:08:18.528Z,61.27
2022-10-22T08:11:23.309Z,61.29
2022-10-22T08:14:27.147Z,61.47
2022-10-22T08:17:33.826Z,62.08
2022-10-22T08:20:37.570Z,60.04
2022-10-22T08:23:42.152Z,60.82
2022-10-22T08:26:47.242Z,60.49
2022-10-22T08:29:51.067Z,59.77
2022-10-22T08:32:55.367Z,59.38
2022-10-22T08:35:58.732Z,59.74
2022-10-22T08:39:02.883Z,59.46
2022-10-22T08:42:39.328Z,58.87
2022-10-22T08:45:52.775Z,59.25
2022-10-22T08:48:59.663Z,58.70
2022-10-22T08:52:03.900Z,58.47
2022-10-22T08:55:14.533Z,58.32
2022-10-22T08:58:28.432Z,57.92
2022-10-22T09:01:39.867Z,57.96
2022-10-22T09:05:14.520Z,58.36
2022-10-22T09:08:20.730Z,57.92
2022-10-22T09:11:28.091Z,58.08
2022-10-22T09:14:33.284Z,58.10
2022-10-22T09:17:42.365Z,57.07
2022-10-22T09:20:54.883Z,56.17
2022-10-22T09:24:06.026Z,55.40
2022-10-22T09:27:14.144Z,56.10
2022-10-22T09:30:21.679Z,56.31
2022-10-22T09:33:27.591Z,56.70
2022-10-22T09:36:31.799Z,57.21
2022-10-22T09:39:38.091Z,56.80
2022-10-22T09:42:43.790Z,56.55
2022-10-22T09:45:56.951Z,56.70
2022-10-22T09:49:05.825Z,56.57
2022-10-22T09:52:35.634Z,56.55
2022-10-22T09:55:39.877Z,56.07
2022-10-22T09:58:44.913Z,56.02
2022-10-22T10:02:08.421Z,56.31
2022-10-22T10:05:28.648Z,56.42
2022-10-22T10:08:32.576Z,55.77
2022-10-22T10:11:44.032Z,55.54
2022-10-22T10:14:57.286Z,54.97
2022-10-22T10:18:12.484Z,54.13
2022-10-22T10:21:23.536Z,54.11
2022-10-22T10:24:41.839Z,54.64
2022-10-22T10:27:54.619Z,53.12
2022-10-22T10:31:07.517Z,53.03
2022-10-22T10:34:25.803Z,53.35
2022-10-22T10:37:33.693Z,52.64
2022-10-22T10:40:46.684Z,52.33
2022-10-22T10:44:17.165Z,51.30
2022-10-22T10:47:35.587Z,51.64
2022-10-22T10:50:51.606Z,52.11
2022-10-22T10:54:18.030Z,51.50
2022-10-22T10:57:32.326Z,51.14
2022-10-22T11:00:46.285Z,50.06
2022-10-22T11:04:15.239Z,51.33
2022-10-22T11:07:34.922Z,51.20
2022-10-22T11:10:46.190Z,51.75
2022-10-22T11:13:54.366Z,51.56
2022-10-22T11:17:04.262Z,52.11
2022-10-22T11:20:18.959Z,51.96
2022-10-22T11:23:31.469Z,51.67
2022-10-22T11:26:42.098Z,51.15
2022-10-22T11:29:50.688Z,51.12
2022-10-22T11:32:59.932Z,51.49
2022-10-22T11:36:07.482Z,51.75
2022-10-22T11:39:31.364Z,52.29
2022-10-22T11:42:37.393Z,52.30
2022-10-22T11:45:43.267Z,52.67
2022-10-22T11:49:03.282Z,53.22
2022-10-22T11:52:25.148Z,53.12
2022-10-22T11:55:46.030Z,53.49
2022-10-22T11:58:53.745Z,53.30
2022-10-22T12:01:58.167Z,53.71
2022-10-22T12:05:34.676Z,54.57
2022-10-22T12:08:44.937Z,53.00
2022-10-22T12:11:52.834Z,52.90
2022-10-22T12:14:59.351Z,52.99
2022-10-22T12:18:06.610Z,52.86
2022-10-22T12:21:14.130Z,53.22
2022-10-22T12:24:21.310Z,52.74
2022-10-22T12:27:28.239Z,52.72
2022-10-22T12:30:34.779Z,52.86
2022-10-22T12:33:40.103Z,53.19
2022-10-22T12:36:44.830Z,52.63
2022-10-22T12:39:48.329Z,53.48
2022-10-22T12:42:55.354Z,53.85
2022-10-22T12:46:01.022Z,54.26
2022-10-22T12:49:07.465Z,53.74
2022-10-22T12:52:16.854Z,54.07
2022-10-22T12:55:25.836Z,54.26
2022-10-22T12:58:37.743Z,53.49
2022-10-22T13:01:44.137Z,53.94
2022-10-22T13:05:17.087Z,53.57
2022-10-22T13:11:33.353Z,54.24
2022-10-22T13:14:39.857Z,54.08
2022-10-22T13:17:43.946Z,54.14
2022-10-22T13:20:55.237Z,54.80
2022-10-22T13:24:02.161Z,54.66
2022-10-22T13:27:05.724Z,54.87
2022-10-22T13:30:25.631Z,55.31
2022-10-22T13:33:34.437Z,55.25
2022-10-22T13:36:38.053Z,55.39
2022-10-22T13:39:41.806Z,55.29
2022-10-22T13:42:45.460Z,55.33
2022-10-22T13:45:55.308Z,55.54
2022-10-22T13:48:59.973Z,55.66
2022-10-22T13:52:03.676Z,55.65
2022-10-22T13:55:15.973Z,55.49
2022-10-22T13:58:21.501Z,55.04
2022-10-22T14:01:28.477Z,55.33
2022-10-22T14:04:32.000Z,55.81
2022-10-22T14:07:37.252Z,55.54
2022-10-22T14:10:40.936Z,55.43
2022-10-22T14:13:46.934Z,55.44
2022-10-22T14:16:54.000Z,55.49
2022-10-22T14:19:57.392Z,55.31
2022-10-22T14:23:06.865Z,55.25
2022-10-22T14:26:23.918Z,55.05
2022-10-22T14:29:29.704Z,54.97
2022-10-22T14:32:34.683Z,54.96
2022-10-22T14:35:38.407Z,54.82
2022-10-22T14:38:42.166Z,54.82
2022-10-22T14:41:46.139Z,54.99
2022-10-22T14:44:49.416Z,54.73
2022-10-22T14:47:55.986Z,54.72
2022-10-22T14:50:59.398Z,54.78
2022-10-22T14:54:03.042Z,55.10
2022-10-22T14:57:06.895Z,55.02
2022-10-22T15:00:13.246Z,54.99
2022-10-22T15:03:18.030Z,55.13
2022-10-22T15:06:23.366Z,55.37
2022-10-22T15:09:26.685Z,55.72
2022-10-22T15:12:31.631Z,55.93
2022-10-22T15:15:39.664Z,56.06
2022-10-22T15:18:45.160Z,56.08
2022-10-22T15:21:48.484Z,56.42
2022-10-22T15:24:53.617Z,56.50
2022-10-22T15:28:00.780Z,57.01
2022-10-22T15:31:09.248Z,57.32
2022-10-22T15:34:14.370Z,57.93
2022-10-22T15:37:17.943Z,58.17
2022-10-22T15:40:21.669Z,57.96
2022-10-22T15:43:25.369Z,58.20
2022-10-22T15:46:34.547Z,58.60
2022-10-22T15:49:42.399Z,58.99
2022-10-22T15:52:45.884Z,59.09
2022-10-22T15:55:50.611Z,59.33
2022-10-22T15:58:55.139Z,59.79
2022-10-22T16:01:58.752Z,59.72
2022-10-22T16:05:03.556Z,60.62
2022-10-22T16:08:07.187Z,61.26
2022-10-22T16:11:11.122Z,61.41
2022-10-22T16:14:19.789Z,61.59
2022-10-22T16:17:23.583Z,61.22
2022-10-22T16:20:28.665Z,61.84
2022-10-22T16:23:32.038Z,61.76
2022-10-22T16:26:37.170Z,61.41
2022-10-22T16:29:40.624Z,61.54
2022-10-22T16:32:44.270Z,62.08
2022-10-22T16:35:49.898Z,62.33
2022-10-22T16:38:53.621Z,62.37
2022-10-22T16:41:57.075Z,61.95
2022-10-22T16:45:00.728Z,62.19
2022-10-22T16:48:04.182Z,62.38
2022-10-22T16:51:11.591Z,62.71
2022-10-22T16:54:33.621Z,63.20
2022-10-22T16:57:37.279Z,62.18
2022-10-22T17:00:40.851Z,62.62
2022-10-22T17:03:44.635Z,63.08
2022-10-22T17:06:49.427Z,62.69
2022-10-22T17:09:53.031Z,63.80
2022-10-22T17:12:56.514Z,63.87
2022-10-22T17:16:03.254Z,63.05
2022-10-22T17:19:07.288Z,63.00
2022-10-22T17:22:14.889Z,62.56
2022-10-22T17:25:24.011Z,63.14
2022-10-22T17:28:28.500Z,63.67
2022-10-22T17:31:35.494Z,63.48
2022-10-22T17:34:40.464Z,63.82
2022-10-22T17:37:45.295Z,64.35
2022-10-22T17:40:49.143Z,63.14
2022-10-22T17:43:52.754Z,62.92
2022-10-22T17:46:56.815Z,63.52
2022-10-22T17:50:00.372Z,63.09
2022-10-22T17:53:05.285Z,62.97
2022-10-22T17:56:10.242Z,63.37
2022-10-22T17:59:15.941Z,64.22
2022-10-22T18:02:20.043Z,64.19
2022-10-22T18:05:25.589Z,62.91
2022-10-22T18:08:30.361Z,63.96
2022-10-22T18:11:34.478Z,63.94
2022-10-22T18:14:37.990Z,63.32
2022-10-22T18:17:41.893Z,63.37
2022-10-22T18:20:49.894Z,62.71
2022-10-22T18:23:54.987Z,62.32
2022-10-22T18:26:59.080Z,63.75
2022-10-22T18:30:02.660Z,62.93
2022-10-22T18:33:06.997Z,62.94
2022-10-22T18:36:13.467Z,63.00
2022-10-22T18:39:19.494Z,63.21
2022-10-22T18:42:24.629Z,63.54
2022-10-22T18:45:30.037Z,64.05
2022-10-22T18:48:33.808Z,63.46
2022-10-22T18:51:37.721Z,64.56
2022-10-22T18:54:42.802Z,63.61
2022-10-22T18:57:46.317Z,62.79
2022-10-22T19:00:50.661Z,62.94
2022-10-22T19:03:54.031Z,63.80
2022-10-22T19:06:58.581Z,63.52
2022-10-22T19:10:03.756Z,63.67
2022-10-22T19:13:07.369Z,64.03
2022-10-22T19:16:13.754Z,63.38
2022-10-22T19:19:19.778Z,64.00
2022-10-22T19:22:23.265Z,63.95
2022-10-22T19:25:28.857Z,63.92
2022-10-22T19:28:32.531Z,63.94
2022-10-22T19:31:36.313Z,63.35
2022-10-22T19:34:40.408Z,62.73
2022-10-22T19:37:48.241Z,62.98
2022-10-22T19:40:53.365Z,63.04
2022-10-22T19:43:59.433Z,63.58
2022-10-22T19:47:03.145Z,63.22
2022-10-22T19:50:07.587Z,63.04
2022-10-22T19:53:11.181Z,62.58
2022-10-22T19:56:18.942Z,63.07
2022-10-22T19:59:26.227Z,63.41
2022-10-22T20:02:32.317Z,62.86
2022-10-22T20:05:39.607Z,64.00
2022-10-22T20:08:43.290Z,62.77
2022-10-22T20:11:48.051Z,62.58
2022-10-22T20:14:51.657Z,63.76
2022-10-22T20:17:55.098Z,63.33
2022-10-22T20:20:58.783Z,64.62
2022-10-22T20:24:02.632Z,64.08
2022-10-22T20:27:07.707Z,64.69
2022-10-22T20:30:12.039Z,65.46
2022-10-22T20:33:16.370Z,65.74
2022-10-22T20:36:22.026Z,65.29
2022-10-22T20:39:25.719Z,66.10
2022-10-22T20:42:30.525Z,66.68
2022-10-22T20:45:36.251Z,65.92
2022-10-22T20:48:39.737Z,65.82
2022-10-22T20:51:43.586Z,66.80
2022-10-22T20:55:06.195Z,67.30
2022-10-22T20:58:11.533Z,67.79
2022-10-22T21:01:20.516Z,68.13
2022-10-22T21:04:24.190Z,65.90
2022-10-22T21:07:27.960Z,65.81
2022-10-22T21:10:32.645Z,66.04
2022-10-22T21:13:37.615Z,65.46
2022-10-22T21:16:42.157Z,66.13
2022-10-22T21:19:45.470Z,66.32
2022-10-22T21:22:49.513Z,66.97
2022-10-22T21:25:57.094Z,66.93
2022-10-22T21:29:02.248Z,67.46
2022-10-22T21:32:05.840Z,67.26
2022-10-22T21:35:10.013Z,67.57
2022-10-22T21:38:13.536Z,68.21
2022-10-22T21:41:18.878Z,67.44
2022-10-22T21:44:23.660Z,68.56
2022-10-22T21:47:27.303Z,68.89
2022-10-22T21:50:31.207Z,69.11
2022-10-22T21:53:34.808Z,69.19
2022-10-22T21:56:38.193Z,69.23
2022-10-22T21:59:43.714Z,69.30
2022-10-22T22:02:47.173Z,69.54
2022-10-22T22:05:52.281Z,69.50
2022-10-22T22:08:56.705Z,69.10
2022-10-22T22:12:00.420Z,69.16
2022-10-22T22:15:06.130Z,69.24
2022-10-22T22:18:09.739Z,69.13
2022-10-22T22:21:14.566Z,69.48
2022-10-22T22:24:18.089Z,68.87
2022-10-22T22:27:21.381Z,68.53
2022-10-22T22:30:26.412Z,68.35
2022-10-22T22:33:30.124Z,67.71
2022-10-22T22:36:36.025Z,67.68
2022-10-22T22:39:39.409Z,67.59
2022-10-22T22:42:42.992Z,67.34
2022-10-22T22:45:47.719Z,67.32
2022-10-22T22:48:51.968Z,67.10
2022-10-22T22:51:55.503Z,66.99
2022-10-22T22:54:59.173Z,67.26
2022-10-22T22:58:02.517Z,66.64
2022-10-22T23:01:14.119Z,66.68
2022-10-22T23:04:22.839Z,66.94
2022-10-22T23:07:26.544Z,66.93
2022-10-22T23:10:29.935Z,66.70
2022-10-22T23:13:33.617Z,66.82
2022-10-22T23:16:41.378Z,67.06
2022-10-22T23:19:44.950Z,67.14
2022-10-22T23:22:48.768Z,67.21
2022-10-22T23:25:55.972Z,67.45
2022-10-22T23:29:02.189Z,67.18
2022-10-22T23:32:13.225Z,67.61
2022-10-22T23:35:17.067Z,67.78
2022-10-22T23:38:23.600Z,67.39
2022-10-22T23:41:26.921Z,67.12
2022-10-22T23:44:30.495Z,67.36
2022-10-22T23:47:35.879Z,67.18
2022-10-22T23:50:39.610Z,67.69
2022-10-22T23:53:44.345Z,67.18
2022-10-22T23:56:50.610Z,67.48
2022-10-22T23:59:54.658Z,67.41
